createdAt,value
2022-08-02T00:01:23.222Z,5.70
2022-08-02T00:03:58.477Z,4.90
2022-08-02T00:06:29.780Z,4.20
2022-08-02T00:08:57.478Z,6.10
2022-08-02T00:11:25.225Z,4.50
2022-08-02T00:13:54.104Z,4.20
2022-08-02T00:16:21.635Z,4.00
2022-08-02T00:19:05.665Z,4.90
2022-08-02T00:21:33.246Z,4.90
2022-08-02T00:24:27.947Z,4.60
2022-08-02T00:26:54.340Z,5.40
2022-08-02T00:29:22.573Z,5.20
2022-08-02T00:31:49.887Z,4.30
2022-08-02T00:34:28.822Z,4.60
2022-08-02T00:36:58.812Z,7.50
2022-08-02T00:39:34.855Z,5.80
2022-08-02T00:42:04.460Z,3.90
2022-08-02T00:44:31.843Z,4.80
2022-08-02T00:46:59.342Z,4.20
2022-08-02T00:49:27.562Z,4.20
2022-08-02T00:51:54.936Z,4.00
2022-08-02T00:54:22.769Z,4.70
2022-08-02T00:56:51.180Z,3.40
2022-08-02T00:59:18.916Z,3.80
2022-08-02T01:01:57.128Z,3.90
2022-08-02T01:04:30.447Z,4.20
2022-08-02T01:07:03.622Z,4.40
2022-08-02T01:09:42.446Z,3.40
2022-08-02T01:12:10.644Z,3.50
2022-08-02T01:14:40.566Z,3.70
2022-08-02T01:17:42.710Z,3.40
2022-08-02T01:20:45.181Z,3.70
2022-08-02T01:23:33.990Z,3.30
2022-08-02T01:26:43.145Z,4.00
2022-08-02T01:29:26.026Z,3.60
2022-08-02T01:32:03.488Z,3.90
2022-08-02T01:35:00.620Z,3.60
2022-08-02T01:38:19.766Z,3.70
2022-08-02T01:40:50.452Z,3.60
2022-08-02T01:43:21.700Z,3.30
2022-08-02T01:45:50.477Z,4.10
2022-08-02T01:48:19.885Z,3.70
2022-08-02T01:50:49.304Z,3.80
2022-08-02T01:53:20.276Z,4.10
2022-08-02T01:55:58.016Z,4.90
2022-08-02T01:58:31.256Z,6.60
2022-08-02T02:01:01.531Z,5.10
2022-08-02T02:03:33.925Z,4.10
2022-08-02T02:08:38.027Z,4.50
2022-08-02T02:12:11.592Z,4.30
2022-08-02T02:13:58.312Z,6.30
2022-08-02T02:16:26.966Z,6.20
2022-08-02T02:18:55.060Z,5.70
2022-08-02T02:21:22.603Z,6.30
2022-08-02T02:23:50.736Z,6.40
2022-08-02T02:26:31.329Z,8.80
2022-08-02T02:29:05.087Z,7.90
2022-08-02T02:31:37.656Z,6.40
2022-08-02T02:34:14.072Z,7.10
2022-08-02T02:36:48.737Z,7.20
2022-08-02T02:39:18.476Z,5.90
2022-08-02T02:41:48.640Z,5.40
2022-08-02T02:44:24.107Z,8.60
2022-08-02T02:46:54.989Z,7.10
2022-08-02T02:49:24.790Z,7.00
2022-08-02T02:51:53.801Z,7.90
2022-08-02T02:54:29.902Z,6.30
2022-08-02T02:57:05.375Z,7.00
2022-08-02T02:59:42.563Z,5.40
2022-08-02T03:02:19.365Z,6.10
2022-08-02T03:04:57.223Z,7.30
2022-08-02T03:07:26.804Z,10.20
2022-08-02T03:09:55.191Z,6.60
2022-08-02T03:12:30.839Z,7.20
2022-08-02T03:15:07.456Z,7.90
2022-08-02T03:17:44.248Z,6.60
2022-08-02T03:20:20.150Z,13.10
2022-08-02T03:22:47.855Z,7.20
2022-08-02T03:25:17.685Z,8.60
2022-08-02T03:27:45.848Z,7.00
2022-08-02T03:30:14.392Z,8.90
2022-08-02T03:32:46.624Z,6.40
2022-08-02T03:35:23.273Z,7.60
2022-08-02T03:37:55.472Z,9.50
2022-08-02T03:40:24.948Z,10.10
2022-08-02T03:42:54.208Z,8.50
2022-08-02T03:45:24.152Z,6.30
2022-08-02T03:47:52.194Z,8.70
2022-08-02T03:50:22.543Z,6.40
2022-08-02T03:52:50.451Z,9.50
2022-08-02T03:55:17.888Z,9.00
2022-08-02T03:57:45.355Z,6.60
2022-08-02T04:00:19.382Z,7.10
2022-08-02T04:02:47.827Z,7.10
2022-08-02T04:05:17.000Z,13.70
2022-08-02T04:08:33.018Z,8.70
2022-08-02T04:10:52.668Z,7.40
2022-08-02T04:13:27.433Z,7.30
2022-08-02T04:16:06.387Z,7.10
2022-08-02T04:18:41.380Z,11.50
2022-08-02T04:21:13.750Z,11.10
2022-08-02T04:23:46.971Z,8.50
2022-08-02T04:26:18.755Z,7.70
2022-08-02T04:28:54.223Z,7.10
2022-08-02T04:31:24.318Z,8.50
2022-08-02T04:33:52.989Z,7.70
2022-08-02T04:36:30.905Z,7.10
2022-08-02T04:38:59.776Z,6.00
2022-08-02T04:41:43.880Z,6.90
2022-08-02T04:44:13.869Z,9.20
2022-08-02T04:46:43.969Z,7.80
2022-08-02T04:49:12.795Z,6.50
2022-08-02T04:51:43.753Z,6.70
2022-08-02T04:54:12.791Z,9.00
2022-08-02T04:56:41.123Z,7.10
2022-08-02T04:59:09.410Z,8.90
2022-08-02T05:01:36.875Z,6.40
2022-08-02T05:04:05.015Z,7.00
2022-08-02T05:06:32.464Z,7.20
2022-08-02T05:08:59.825Z,7.00
2022-08-02T05:11:34.303Z,6.40
2022-08-02T05:14:06.840Z,6.70
2022-08-02T05:16:34.459Z,6.30
2022-08-02T05:19:02.793Z,6.90
2022-08-02T05:21:31.399Z,7.10
2022-08-02T05:23:58.871Z,6.20
2022-08-02T05:26:26.320Z,5.80
2022-08-02T05:28:53.747Z,7.00
2022-08-02T05:31:21.737Z,5.90
2022-08-02T05:33:49.287Z,7.40
2022-08-02T05:36:16.618Z,6.30
2022-08-02T05:38:49.683Z,6.20
2022-08-02T05:41:26.610Z,6.60
2022-08-02T05:43:55.268Z,6.30
2022-08-02T05:46:22.720Z,6.40
2022-08-02T05:49:15.117Z,6.00
2022-08-02T05:52:39.025Z,7.40
2022-08-02T05:58:49.496Z,6.10
2022-08-02T06:01:33.977Z,6.30
2022-08-02T06:04:04.967Z,6.70
2022-08-02T06:06:33.678Z,6.60
2022-08-02T06:09:27.048Z,6.40
2022-08-02T06:12:01.430Z,8.00
2022-08-02T06:14:34.338Z,6.30
2022-08-02T06:17:05.265Z,8.50
2022-08-02T06:19:46.960Z,6.70
2022-08-02T06:22:37.640Z,5.70
2022-08-02T06:25:11.769Z,5.80
2022-08-02T06:27:55.514Z,6.30
2022-08-02T06:30:23.317Z,6.10
2022-08-02T06:32:53.860Z,6.10
2022-08-02T06:35:25.446Z,6.50
2022-08-02T06:39:04.311Z,7.10
2022-08-02T06:41:45.295Z,6.70
2022-08-02T06:47:13.055Z,10.10
2022-08-02T06:49:51.594Z,6.70
2022-08-02T06:52:30.734Z,8.70
2022-08-02T06:55:00.821Z,6.00
2022-08-02T06:57:31.648Z,5.80
2022-08-02T07:00:06.570Z,6.10
2022-08-02T07:02:39.419Z,6.30
2022-08-02T07:05:08.981Z,8.30
2022-08-02T07:07:36.804Z,7.10
2022-08-02T07:10:04.766Z,5.30
2022-08-02T07:12:34.171Z,5.90
2022-08-02T07:15:05.739Z,5.70
2022-08-02T07:17:34.739Z,5.70
2022-08-02T07:20:23.266Z,5.30
2022-08-02T07:22:50.968Z,5.50
2022-08-02T07:25:18.555Z,5.40
2022-08-02T07:27:46.119Z,6.10
2022-08-02T07:30:14.135Z,5.50
2022-08-02T07:32:41.652Z,7.00
2022-08-02T07:35:50.315Z,6.20
2022-08-02T07:38:39.070Z,5.40
2022-08-02T07:41:41.619Z,5.00
2022-08-02T07:45:01.286Z,6.60
2022-08-02T07:47:52.960Z,5.60
2022-08-02T07:50:26.167Z,5.00
2022-08-02T07:53:50.770Z,5.20
2022-08-02T07:56:58.309Z,4.70
2022-08-02T07:59:30.480Z,4.30
2022-08-02T08:02:48.536Z,4.50
2022-08-02T08:05:30.586Z,4.80
2022-08-02T08:07:58.249Z,5.20
2022-08-02T08:10:26.043Z,5.10
2022-08-02T08:13:19.539Z,4.30
2022-08-02T08:16:16.826Z,4.00
2022-08-02T08:18:53.764Z,4.40
2022-08-02T08:22:01.691Z,4.30
2022-08-02T08:24:56.816Z,5.70
2022-08-02T08:27:43.218Z,5.60
2022-08-02T08:30:49.766Z,4.80
2022-08-02T08:33:19.709Z,5.70
2022-08-02T08:35:49.311Z,5.60
2022-08-02T08:38:17.313Z,9.10
2022-08-02T08:40:51.309Z,4.30
2022-08-02T08:43:19.556Z,3.70
2022-08-02T08:46:24.684Z,4.20
2022-08-02T08:49:01.412Z,4.00
2022-08-02T08:51:43.014Z,4.00
2022-08-02T08:54:16.973Z,4.00
2022-08-02T08:57:50.949Z,4.00
2022-08-02T09:01:08.078Z,4.20
2022-08-02T09:03:45.766Z,4.50
2022-08-02T09:06:13.629Z,4.20
2022-08-02T09:08:41.159Z,4.70
2022-08-02T09:11:23.117Z,4.60
2022-08-02T09:14:28.546Z,5.00
2022-08-02T09:17:18.920Z,7.00
2022-08-02T09:20:08.721Z,4.50
2022-08-02T09:22:38.744Z,4.90
2022-08-02T09:25:35.035Z,5.60
2022-08-02T09:29:03.201Z,5.50
2022-08-02T09:31:35.292Z,7.10
2022-08-02T09:34:04.935Z,4.40
2022-08-02T09:36:47.748Z,5.30
2022-08-02T09:39:17.937Z,5.20
2022-08-02T09:41:51.862Z,5.20
2022-08-02T09:44:30.933Z,5.50
2022-08-02T09:47:13.951Z,5.40
2022-08-02T09:50:02.826Z,7.50
2022-08-02T09:52:46.582Z,4.50
2022-08-02T09:55:58.073Z,4.40
2022-08-02T09:58:52.977Z,4.80
2022-08-02T10:01:37.516Z,5.80
2022-08-02T10:04:31.421Z,4.90
2022-08-02T10:07:46.435Z,4.80
2022-08-02T10:10:16.259Z,5.70
2022-08-02T10:12:43.807Z,4.80
2022-08-02T10:15:25.755Z,5.70
2022-08-02T10:17:55.160Z,4.60
2022-08-02T10:20:50.881Z,10.50
2022-08-02T10:23:21.280Z,6.20
2022-08-02T10:26:32.327Z,4.50
2022-08-02T10:29:01.603Z,8.60
2022-08-02T10:31:38.536Z,4.00
2022-08-02T10:34:12.214Z,6.00
2022-08-02T10:36:41.671Z,4.30
2022-08-02T10:39:09.970Z,4.70
2022-08-02T10:42:03.953Z,5.40
2022-08-02T10:44:33.909Z,4.30
2022-08-02T10:47:19.559Z,4.80
2022-08-02T10:49:59.383Z,4.60
2022-08-02T10:52:29.059Z,9.50
2022-08-02T10:55:13.246Z,5.70
2022-08-02T10:57:42.160Z,4.70
2022-08-02T11:00:22.153Z,4.20
2022-08-02T11:02:53.458Z,4.10
2022-08-02T11:05:43.042Z,4.60
2022-08-02T11:08:22.088Z,4.00
2022-08-02T11:10:49.847Z,3.80
2022-08-02T11:13:19.308Z,4.00
2022-08-02T11:16:05.374Z,4.20
2022-08-02T11:18:50.716Z,6.60
2022-08-02T11:21:32.942Z,5.70
2022-08-02T11:24:30.823Z,4.00
2022-08-02T11:27:02.163Z,4.00
2022-08-02T11:29:43.960Z,3.90
2022-08-02T11:32:30.745Z,3.60
2022-08-02T11:35:00.258Z,3.50
2022-08-02T11:37:43.486Z,4.90
2022-08-02T11:40:19.583Z,3.50
2022-08-02T11:42:53.245Z,4.20
2022-08-02T11:45:29.701Z,4.40
2022-08-02T11:48:01.699Z,4.20
2022-08-02T11:50:30.641Z,4.50
2022-08-02T11:52:58.237Z,3.60
2022-08-02T11:55:31.663Z,3.70
2022-08-02T11:58:04.362Z,4.70
2022-08-02T12:00:33.934Z,3.70
2022-08-02T12:03:02.052Z,3.70
2022-08-02T12:05:51.261Z,3.90
2022-08-02T12:08:22.432Z,5.60
2022-08-02T12:10:53.132Z,4.40
2022-08-02T12:13:20.808Z,4.30
2022-08-02T12:15:48.249Z,4.40
2022-08-02T12:18:41.465Z,3.80
2022-08-02T12:21:25.780Z,5.00
2022-08-02T12:23:59.397Z,4.40
2022-08-02T12:26:47.895Z,3.90
2022-08-02T12:29:56.055Z,4.30
2022-08-02T12:32:06.843Z,3.80
2022-08-02T12:34:35.333Z,5.10
2022-08-02T12:37:05.831Z,9.60
2022-08-02T12:39:45.303Z,4.20
2022-08-02T12:42:15.729Z,4.80
2022-08-02T12:45:10.029Z,5.10
2022-08-02T12:47:50.521Z,4.50
2022-08-02T12:50:30.245Z,4.60
2022-08-02T12:53:17.115Z,7.90
2022-08-02T12:56:03.403Z,5.90
2022-08-02T12:58:48.517Z,4.00
2022-08-02T13:01:28.106Z,4.70
2022-08-02T13:04:10.470Z,4.40
2022-08-02T13:06:51.863Z,5.40
2022-08-02T13:09:28.926Z,3.80
2022-08-02T13:11:56.896Z,5.80
2022-08-02T13:14:24.758Z,4.30
2022-08-02T13:16:53.272Z,4.20
2022-08-02T13:19:22.971Z,5.20
2022-08-02T13:22:02.474Z,5.90
2022-08-02T13:24:39.911Z,5.80
2022-08-02T13:27:23.397Z,4.20
2022-08-02T13:29:53.002Z,4.50
2022-08-02T13:32:22.079Z,4.50
2022-08-02T13:34:50.077Z,3.40
2022-08-02T13:37:19.328Z,5.30
2022-08-02T13:40:23.468Z,3.20
2022-08-02T13:43:53.549Z,3.70
2022-08-02T13:46:29.423Z,6.10
2022-08-02T13:48:59.869Z,3.40
2022-08-02T13:51:27.529Z,4.70
2022-08-02T13:53:55.744Z,4.00
2022-08-02T13:56:35.855Z,3.60
2022-08-02T14:03:14.534Z,3.80
2022-08-02T14:06:02.328Z,3.50
2022-08-02T14:08:29.715Z,3.30
2022-08-02T14:10:57.342Z,4.00
2022-08-02T14:13:28.310Z,5.80
2022-08-02T14:16:06.878Z,3.20
2022-08-02T14:18:36.175Z,3.70
2022-08-02T14:21:04.510Z,6.40
2022-08-02T14:23:50.205Z,3.80
2022-08-02T14:26:26.869Z,8.70
2022-08-02T14:29:02.320Z,3.60
2022-08-02T14:31:49.653Z,3.10
2022-08-02T14:34:48.385Z,2.50
2022-08-02T14:37:16.785Z,3.10
2022-08-02T14:39:59.682Z,4.00
2022-08-02T14:42:31.768Z,2.70
2022-08-02T14:45:00.868Z,3.10
2022-08-02T14:47:30.233Z,2.70
2022-08-02T14:49:58.836Z,2.70
2022-08-02T14:52:26.384Z,3.80
2022-08-02T14:54:54.899Z,2.50
2022-08-02T14:57:23.907Z,2.60
2022-08-02T14:59:52.459Z,2.20
2022-08-02T15:02:19.911Z,1.80
2022-08-02T15:04:47.757Z,2.90
2022-08-02T15:07:16.053Z,2.30
2022-08-02T15:09:43.675Z,2.30
2022-08-02T15:12:12.066Z,3.70
2022-08-02T15:14:41.282Z,3.10
2022-08-02T15:17:09.841Z,1.80
2022-08-02T15:19:59.384Z,2.70
2022-08-02T15:22:25.591Z,2.30
2022-08-02T15:24:53.824Z,1.90
2022-08-02T15:27:21.671Z,1.60
2022-08-02T15:29:49.293Z,2.10
2022-08-02T15:32:20.500Z,2.50
2022-08-02T15:34:51.511Z,2.20
2022-08-02T15:37:19.169Z,2.20
2022-08-02T15:39:47.197Z,2.80
2022-08-02T15:42:30.280Z,1.90
2022-08-02T15:44:59.723Z,9.40
2022-08-02T15:47:28.441Z,1.40
2022-08-02T15:49:56.812Z,1.70
2022-08-02T15:52:29.026Z,1.90
2022-08-02T15:55:07.464Z,2.00
2022-08-02T15:57:36.723Z,1.40
2022-08-02T16:00:18.004Z,1.60
2022-08-02T16:02:47.837Z,2.10
2022-08-02T16:05:18.396Z,1.40
2022-08-02T16:07:46.591Z,2.40
2022-08-02T16:10:16.710Z,3.20
2022-08-02T16:12:54.348Z,4.00
2022-08-02T16:15:22.413Z,2.90
2022-08-02T16:17:54.094Z,4.40
2022-08-02T16:20:23.836Z,1.50
2022-08-02T16:22:51.797Z,1.30
2022-08-02T16:25:19.741Z,3.20
2022-08-02T16:28:06.816Z,3.20
2022-08-02T16:30:35.113Z,2.80
2022-08-02T16:33:02.827Z,2.00
2022-08-02T16:35:30.340Z,1.40
2022-08-02T16:37:57.815Z,2.30
2022-08-02T16:40:25.658Z,1.70
2022-08-02T16:42:52.947Z,2.20
2022-08-02T16:45:21.384Z,1.50
2022-08-02T16:47:56.007Z,3.10
2022-08-02T16:53:36.610Z,2.50
2022-08-02T16:56:03.989Z,1.70
2022-08-02T16:58:31.361Z,2.30
2022-08-02T17:00:58.799Z,1.40
2022-08-02T17:03:55.594Z,1.90
2022-08-02T17:06:16.057Z,1.80
2022-08-02T17:08:54.036Z,2.30
2022-08-02T17:11:23.797Z,2.50
2022-08-02T17:13:51.874Z,2.40
2022-08-02T17:16:25.979Z,3.30
2022-08-02T17:18:54.869Z,2.30
2022-08-02T17:21:22.401Z,1.80
2022-08-02T17:24:04.870Z,2.60
2022-08-02T17:26:37.308Z,2.80
2022-08-02T17:29:16.204Z,2.40
2022-08-02T17:32:05.874Z,2.60
2022-08-02T17:34:36.228Z,2.50
2022-08-02T17:37:07.642Z,2.10
2022-08-02T17:39:44.279Z,2.30
2022-08-02T17:42:23.732Z,2.20
2022-08-02T17:45:06.992Z,3.90
2022-08-02T17:50:34.835Z,4.40
2022-08-02T17:53:04.062Z,2.90
2022-08-02T17:55:33.045Z,3.00
2022-08-02T17:58:00.697Z,2.70
2022-08-02T18:00:37.534Z,3.00
2022-08-02T18:03:09.903Z,4.10
2022-08-02T18:05:53.180Z,4.50
2022-08-02T18:08:23.786Z,3.60
2022-08-02T18:10:53.892Z,3.10
2022-08-02T18:13:22.783Z,3.20
2022-08-02T18:15:51.998Z,7.60
2022-08-02T18:18:29.567Z,5.90
2022-08-02T18:21:15.432Z,9.60
2022-08-02T18:23:48.625Z,11.80
2022-08-02T18:26:33.264Z,6.40
2022-08-02T18:29:04.725Z,3.50
2022-08-02T18:31:39.459Z,6.30
2022-08-02T18:34:07.774Z,11.00
2022-08-02T18:36:35.762Z,5.00
2022-08-02T18:39:16.581Z,8.50
2022-08-02T18:41:44.449Z,7.40
2022-08-02T18:44:16.718Z,10.30
2022-08-02T18:46:47.717Z,9.50
2022-08-02T18:49:17.278Z,9.40
2022-08-02T18:51:44.937Z,7.50
2022-08-02T18:54:12.477Z,9.40
2022-08-02T18:56:39.974Z,12.80
2022-08-02T18:59:07.756Z,12.50
2022-08-02T19:01:42.421Z,13.70
2022-08-02T19:04:14.415Z,5.80
2022-08-02T19:06:42.272Z,7.30
2022-08-02T19:09:14.618Z,7.00
2022-08-02T19:11:48.354Z,4.80
2022-08-02T19:14:27.087Z,5.80
2022-08-02T19:17:15.805Z,6.40
2022-08-02T19:19:44.142Z,6.70
2022-08-02T19:22:26.847Z,9.10
2022-08-02T19:24:56.345Z,5.90
2022-08-02T19:27:32.550Z,7.50
2022-08-02T19:30:04.971Z,6.90
2022-08-02T19:32:42.261Z,7.40
2022-08-02T19:35:30.611Z,10.80
2022-08-02T19:38:11.344Z,7.00
2022-08-02T19:40:43.313Z,5.60
2022-08-02T19:44:21.065Z,5.60
2022-08-02T19:46:00.705Z,5.60
2022-08-02T19:48:29.030Z,4.90
2022-08-02T19:50:59.477Z,4.70
2022-08-02T19:53:47.254Z,5.20
2022-08-02T19:56:25.374Z,5.60
2022-08-02T19:58:57.326Z,5.80
2022-08-02T20:01:37.357Z,10.10
2022-08-02T20:04:13.042Z,3.20
2022-08-02T20:06:47.583Z,9.60
2022-08-02T20:09:21.158Z,6.20
2022-08-02T20:11:54.892Z,5.50
2022-08-02T20:14:26.639Z,5.10
2022-08-02T20:19:28.991Z,3.30
2022-08-02T20:24:46.874Z,6.10
2022-08-02T20:27:21.776Z,3.40
2022-08-02T20:29:52.506Z,5.50
2022-08-02T20:32:23.658Z,3.70
2022-08-02T20:34:52.533Z,3.00
2022-08-02T20:37:59.191Z,6.10
2022-08-02T20:40:17.195Z,5.10
2022-08-02T20:42:47.715Z,3.80
2022-08-02T20:45:17.815Z,6.80
2022-08-02T20:47:49.851Z,5.30
2022-08-02T20:50:40.835Z,3.10
2022-08-02T20:53:24.058Z,3.10
2022-08-02T20:55:55.438Z,3.30
2022-08-02T20:58:27.168Z,4.40
2022-08-02T21:03:39.398Z,7.80
2022-08-02T21:06:11.201Z,5.00
2022-08-02T21:08:45.925Z,5.50
2022-08-02T21:11:14.473Z,3.80
2022-08-02T21:13:46.854Z,5.60
2022-08-02T21:16:29.679Z,4.70
2022-08-02T21:18:59.926Z,8.40
2022-08-02T21:21:29.792Z,4.00
2022-08-02T21:23:59.988Z,2.70
2022-08-02T21:26:31.050Z,6.30
2022-08-02T21:29:03.474Z,3.80
2022-08-02T21:31:35.656Z,3.20
2022-08-02T21:34:19.261Z,4.50
2022-08-02T21:36:50.653Z,6.30
2022-08-02T21:39:18.734Z,4.20
2022-08-02T21:41:48.226Z,4.40
2022-08-02T21:44:17.233Z,6.10
2022-08-02T21:46:46.500Z,3.80
2022-08-02T21:49:18.647Z,7.40
2022-08-02T21:51:49.729Z,8.60
2022-08-02T21:54:21.016Z,5.10
2022-08-02T21:57:07.426Z,5.10
2022-08-02T21:59:35.290Z,4.30
2022-08-02T22:02:02.730Z,3.60
2022-08-02T22:04:31.445Z,4.90
2022-08-02T22:06:58.907Z,4.50
2022-08-02T22:09:43.601Z,5.50
2022-08-02T22:12:18.039Z,7.80
2022-08-02T22:14:55.681Z,4.10
2022-08-02T22:17:52.511Z,5.10
2022-08-02T22:20:19.631Z,7.30
2022-08-02T22:22:50.789Z,4.20
2022-08-02T22:25:27.121Z,5.40
2022-08-02T22:28:38.342Z,6.60
2022-08-02T22:31:03.980Z,9.30
2022-08-02T22:36:38.725Z,5.40
2022-08-02T22:39:19.116Z,10.40
2022-08-02T22:42:05.302Z,5.70
2022-08-02T22:44:35.400Z,5.10
2022-08-02T22:47:07.548Z,6.40
2022-08-02T22:49:54.496Z,6.80
2022-08-02T22:52:24.895Z,6.90
2022-08-02T22:54:52.261Z,8.20
2022-08-02T22:57:30.011Z,10.60
2022-08-02T22:58:35.327Z,1.90
2022-08-02T22:59:05.254Z,4.80
2022-08-02T22:59:59.614Z,15.20
2022-08-02T23:02:34.228Z,12.80
2022-08-02T23:05:09.163Z,9.60
2022-08-02T23:07:38.845Z,9.00
2022-08-02T23:10:07.630Z,10.60
2022-08-02T23:12:35.239Z,13.80
2022-08-02T23:15:03.180Z,10.00
2022-08-02T23:17:49.039Z,10.40
2022-08-02T23:20:21.435Z,7.30
2022-08-02T23:22:48.927Z,7.60
2022-08-02T23:25:16.351Z,9.60
2022-08-02T23:27:50.432Z,10.20
2022-08-02T23:30:19.911Z,12.60
2022-08-02T23:32:47.562Z,9.50
2022-08-02T23:35:16.779Z,12.50
2022-08-02T23:37:59.786Z,7.40
2022-08-02T23:40:38.750Z,11.90
2022-08-02T23:43:14.142Z,12.10
2022-08-02T23:45:45.443Z,9.30
2022-08-02T23:48:13.047Z,9.10
2022-08-02T23:50:40.309Z,9.50
2022-08-02T23:53:07.802Z,7.90
2022-08-02T23:55:35.221Z,7.40
2022-08-02T23:58:02.655Z,7.20
